Time;durP1;ratioP1;P1;durP2;ratioP2;P2;SDS_P1;SDS_P2;PMS_P1;PMS_P2;Temp;Humidity;BMP_temperature;BMP_pressure;BME280_temperature;BME280_humidity;BME280_pressure;Samples;Min_cycle;Max_cycle;Signal;HPM_P1;HPM_P2
2023/05/20 00:01:58;;;;;;;0.10;0.10;;;;;;;11.29;48.40;100722.22;5053957;28;20078;-72
2023/05/20 00:04:26;;;;;;;0.10;0.10;;;;;;;11.27;47.93;100724.41;5088993;28;20056;-72
2023/05/20 00:06:53;;;;;;;0.10;0.10;;;;;;;11.18;47.64;100711.16;5067857;28;20569;-71
2023/05/20 00:09:19;;;;;;;0.10;0.10;;;;;;;11.27;47.57;100721.66;5035072;28;20056;-72
2023/05/20 00:11:46;;;;;;;0.05;0.05;;;;;;;11.30;47.55;100721.13;5073240;28;20567;-71
2023/05/20 00:14:12;;;;;;;0.10;0.10;;;;;;;11.34;47.86;100714.06;5089193;28;20494;-71
2023/05/20 00:16:38;;;;;;;0.10;0.10;;;;;;;11.41;47.99;100709.22;5067365;28;20130;-71
2023/05/20 00:19:04;;;;;;;0.10;0.10;;;;;;;11.39;48.32;100708.63;5065665;28;20507;-72
2023/05/20 00:21:32;;;;;;;0.10;0.10;;;;;;;11.35;48.40;100707.50;5069841;28;20098;-72
2023/05/20 00:23:59;;;;;;;0.10;0.10;;;;;;;11.34;48.84;100708.56;5049002;28;20447;-72
2023/05/20 00:26:25;;;;;;;0.10;0.10;;;;;;;11.32;49.26;100710.75;5077818;28;20048;-71
2023/05/20 00:28:54;;;;;;;0.10;0.10;;;;;;;11.28;49.55;100715.09;5068751;28;20334;-72
2023/05/20 00:31:20;;;;;;;0.10;0.10;;;;;;;11.20;49.91;100708.16;5083325;28;20060;-72
2023/05/20 00:33:46;;;;;;;0.10;0.10;;;;;;;11.23;50.16;100717.75;5053149;28;20369;-72
2023/05/20 00:36:12;;;;;;;0.10;0.10;;;;;;;11.24;50.33;100716.66;5084952;28;20545;-72
2023/05/20 00:38:40;;;;;;;0.10;0.10;;;;;;;11.21;50.60;100718.84;5068147;28;20582;-72
2023/05/20 00:41:07;;;;;;;0.10;0.10;;;;;;;11.22;50.84;100714.22;5086197;28;20059;-72
2023/05/20 00:43:33;;;;;;;0.10;0.10;;;;;;;11.20;50.94;100706.25;5086685;28;20051;-72
2023/05/20 00:46:00;;;;;;;0.10;0.10;;;;;;;11.13;51.21;100702.88;5070938;28;20388;-72
2023/05/20 00:48:31;;;;;;;0.10;0.10;;;;;;;11.19;51.02;100715.53;5067186;28;20614;-72
2023/05/20 00:50:58;;;;;;;0.10;0.10;;;;;;;11.17;51.33;100723.19;5065755;28;20043;-72
2023/05/20 00:53:24;;;;;;;0.10;0.10;;;;;;;11.18;51.63;100716.63;5065179;28;20044;-72
2023/05/20 00:55:52;;;;;;;0.10;0.10;;;;;;;11.16;52.05;100718.78;5065952;28;20044;-72
2023/05/20 00:58:18;;;;;;;0.10;0.10;;;;;;;11.14;52.13;100718.22;5049760;28;20040;-72
2023/05/20 01:00:45;;;;;;;0.10;0.10;;;;;;;11.10;52.32;100713.50;5068328;28;20079;-72
2023/05/20 01:03:11;;;;;;;0.10;0.10;;;;;;;11.09;52.60;100709.13;5034497;28;20047;-71
2023/05/20 01:05:38;;;;;;;0.10;0.10;;;;;;;11.08;52.97;100719.22;5085222;28;20044;-72
2023/05/20 01:08:04;;;;;;;0.00;0.00;;;;;;;11.07;52.68;100709.38;5066391;28;20066;-72
2023/05/20 01:10:33;;;;;;;0.10;0.10;;;;;;;11.07;53.14;100703.91;5087219;28;20044;-72
2023/05/20 01:13:05;;;;;;;0.10;0.10;;;;;;;11.04;53.35;100705.25;5088518;28;20140;-72
2023/05/20 01:15:31;;;;;;;0.10;0.10;;;;;;;11.06;53.51;100715.94;5089069;28;20051;-72
2023/05/20 01:18:00;;;;;;;0.10;0.10;;;;;;;11.04;53.24;100713.47;5068842;28;20044;-72
2023/05/20 01:20:31;;;;;;;0.10;0.10;;;;;;;10.99;53.67;100710.66;5087679;28;20567;-71
2023/05/20 01:22:58;;;;;;;0.10;0.10;;;;;;;10.98;53.43;100714.47;5087825;28;20090;-71
2023/05/20 01:25:25;;;;;;;0.10;0.10;;;;;;;10.97;53.52;100712.81;5053063;28;20147;-74
2023/05/20 01:27:53;;;;;;;0.10;0.10;;;;;;;11.00;53.48;100711.50;5084864;28;20044;-72
2023/05/20 01:30:20;;;;;;;0.10;0.10;;;;;;;10.99;53.56;100709.84;5066863;28;20097;-71
2023/05/20 01:32:49;;;;;;;0.10;0.10;;;;;;;11.02;53.53;100707.44;5069795;28;20128;-72
2023/05/20 01:35:17;;;;;;;0.10;0.10;;;;;;;11.01;53.61;100708.50;5067159;28;20044;-72
2023/05/20 01:37:44;;;;;;;0.10;0.10;;;;;;;10.94;53.61;100707.88;5085515;28;20048;-70
2023/05/20 01:40:15;;;;;;;0.20;0.10;;;;;;;11.01;54.44;100716.72;5084484;28;20519;-71
2023/05/20 01:42:42;;;;;;;0.10;0.10;;;;;;;11.02;53.76;100723.84;5067764;28;20044;-72
2023/05/20 01:45:09;;;;;;;0.10;0.10;;;;;;;11.02;54.09;100709.31;5087048;28;20056;-72
2023/05/20 01:47:37;;;;;;;0.10;0.10;;;;;;;10.97;54.26;100712.81;5066690;28;20048;-72
2023/05/20 01:50:03;;;;;;;0.10;0.10;;;;;;;10.96;54.44;100724.84;5087149;28;20078;-71
2023/05/20 01:52:30;;;;;;;0.10;0.10;;;;;;;10.94;54.81;100715.25;5063638;28;20106;-72
2023/05/20 01:54:57;;;;;;;0.45;0.20;;;;;;;10.94;55.16;100715.25;5065093;28;20050;-72
2023/05/20 01:57:24;;;;;;;0.10;0.10;;;;;;;10.96;55.15;100724.84;5083564;28;20044;-71
2023/05/20 01:59:51;;;;;;;0.10;0.10;;;;;;;10.96;55.03;100719.38;5066792;28;20632;-72
2023/05/20 02:02:17;;;;;;;0.10;0.10;;;;;;;10.94;55.38;100728.94;5067646;28;20048;-72
2023/05/20 02:04:47;;;;;;;0.10;0.10;;;;;;;10.93;55.56;100717.16;5065450;28;20050;-71
2023/05/20 02:07:14;;;;;;;0.10;0.10;;;;;;;10.94;55.37;100721.53;5068324;28;20047;-72
2023/05/20 02:09:40;;;;;;;0.10;0.10;;;;;;;10.96;55.36;100718.56;5068859;28;20138;-72
2023/05/20 02:12:07;;;;;;;0.10;0.10;;;;;;;10.95;55.68;100719.66;5084757;28;20059;-72
2023/05/20 02:14:36;;;;;;;0.10;0.10;;;;;;;10.98;55.70;100722.69;5068278;28;20400;-72
2023/05/20 02:17:03;;;;;;;0.10;0.10;;;;;;;11.02;55.78;100723.84;5063677;28;20047;-72
2023/05/20 02:19:29;;;;;;;0.10;0.10;;;;;;;11.02;55.55;100710.16;5065740;28;20117;-71
2023/05/20 02:21:55;;;;;;;0.10;0.10;;;;;;;11.11;55.76;100721.47;5052233;28;20043;-72
2023/05/20 02:24:21;;;;;;;0.10;0.10;;;;;;;11.12;55.67;100714.09;5044864;28;20515;-72
2023/05/20 02:26:52;;;;;;;0.10;0.10;;;;;;;11.11;55.81;100723.38;5065114;28;20105;-71
2023/05/20 02:29:20;;;;;;;0.10;0.10;;;;;;;11.11;55.92;100723.38;5063528;28;20052;-71
2023/05/20 02:31:50;;;;;;;0.10;0.10;;;;;;;11.07;56.06;100721.16;5063893;28;20061;-72
2023/05/20 02:34:16;;;;;;;;;;;;;;;11.06;56.15;100711.28;5058404;28;20048;-71
2023/05/20 02:36:42;;;;;;;0.10;0.10;;;;;;;11.04;56.27;100713.47;5065299;28;19924;-72
2023/05/20 02:39:08;;;;;;;0.10;0.10;;;;;;;11.04;56.37;100723.56;5067402;28;20054;-72
2023/05/20 02:41:35;;;;;;;0.10;0.10;;;;;;;11.00;56.72;100722.44;5083878;28;20063;-72
2023/05/20 02:44:02;;;;;;;0.10;0.10;;;;;;;10.97;57.01;100723.75;5049894;28;20036;-71
2023/05/20 02:46:28;;;;;;;0.10;0.10;;;;;;;10.96;57.27;100716.63;5086048;28;20534;-71
2023/05/20 02:48:56;;;;;;;0.10;0.10;;;;;;;10.98;57.23;100717.19;5067221;28;20048;-70
2023/05/20 02:51:23;;;;;;;0.10;0.10;;;;;;;10.97;57.31;100720.22;5064566;28;20052;-71
2023/05/20 02:53:49;;;;;;;0.10;0.10;;;;;;;10.92;57.52;100719.03;5082517;28;20121;-70
2023/05/20 02:56:20;;;;;;;0.10;0.10;;;;;;;11.00;57.70;100716.97;5047727;28;20078;-70
2023/05/20 02:58:47;;;;;;;0.10;0.10;;;;;;;10.97;57.58;100720.22;5062464;28;20638;-70
2023/05/20 03:01:13;;;;;;;0.10;0.10;;;;;;;10.97;57.33;100715.56;5065976;28;20048;-71
2023/05/20 03:03:39;;;;;;;0.10;0.10;;;;;;;11.02;57.61;100715.63;5063942;28;20538;-71
2023/05/20 03:06:07;;;;;;;0.10;0.10;;;;;;;11.07;57.70;100721.16;5055347;28;20515;-71
2023/05/20 03:08:33;;;;;;;0.10;0.10;;;;;;;11.06;57.50;100719.50;5083054;28;20068;-70
2023/05/20 03:11:00;;;;;;;0.17;0.13;;;;;;;11.09;57.71;100717.34;5064684;28;20128;-71
2023/05/20 03:13:27;;;;;;;0.10;0.10;;;;;;;11.14;57.72;100723.69;5063062;28;20066;-70
2023/05/20 03:15:54;;;;;;;0.10;0.10;;;;;;;11.19;57.48;100726.50;5049170;28;20056;-71
2023/05/20 03:18:20;;;;;;;0.10;0.10;;;;;;;11.21;57.61;100726.25;5049651;28;20094;-71
2023/05/20 03:20:46;;;;;;;0.10;0.10;;;;;;;11.24;57.57;100727.63;5032649;28;20059;-70
2023/05/20 03:23:14;;;;;;;0.10;0.10;;;;;;;11.23;57.67;100728.69;5040049;28;20419;-71
2023/05/20 03:25:40;;;;;;;0.10;0.10;;;;;;;11.19;57.72;100729.22;5089025;28;20052;-71
2023/05/20 03:28:07;;;;;;;0.10;0.10;;;;;;;11.16;57.79;100726.16;5091589;28;20052;-71
2023/05/20 03:30:36;;;;;;;0.10;0.10;;;;;;;11.14;57.92;100725.59;5050559;28;20060;-71
2023/05/20 03:33:04;;;;;;;0.10;0.10;;;;;;;11.05;57.98;100719.75;5068203;28;20052;-71
2023/05/20 03:35:30;;;;;;;0.10;0.10;;;;;;;11.11;58.22;100724.22;5066675;28;20090;-71
2023/05/20 03:37:58;;;;;;;0.10;0.10;;;;;;;11.12;58.29;100727.75;5067219;28;20131;-71
2023/05/20 03:40:26;;;;;;;0.10;0.10;;;;;;;11.14;58.39;100722.84;5064846;28;20044;-70
2023/05/20 03:42:53;;;;;;;0.10;0.10;;;;;;;11.23;58.09;100723.22;5066945;28;20049;-70
2023/05/20 03:45:20;;;;;;;0.10;0.10;;;;;;;11.27;57.87;100724.41;5065825;28;20045;-70
2023/05/20 03:47:56;;;;;;;0.10;0.10;;;;;;;11.30;57.87;100732.09;5066581;28;20044;-71
2023/05/20 03:50:22;;;;;;;0.10;0.10;;;;;;;11.37;57.75;100729.16;5065442;28;20585;-71
2023/05/20 03:52:48;;;;;;;0.10;0.10;;;;;;;11.39;57.69;100725.03;5066729;28;20052;-70
2023/05/20 03:55:19;;;;;;;0.10;0.10;;;;;;;11.40;57.73;100720.41;5050636;28;20048;-70
2023/05/20 03:57:48;;;;;;;0.10;0.10;;;;;;;11.39;57.98;100714.09;5048047;28;20542;-71
2023/05/20 04:00:15;;;;;;;0.10;0.10;;;;;;;11.39;57.70;100721.50;5064153;28;20066;-71
2023/05/20 04:02:45;;;;;;;0.43;0.10;;;;;;;11.28;57.90;100701.41;5065569;28;20036;-70
2023/05/20 04:05:15;;;;;;;0.10;0.10;;;;;;;11.46;57.84;100722.09;5045849;28;20075;-70
2023/05/20 04:07:41;;;;;;;0.10;0.10;;;;;;;11.46;57.79;100722.09;5064779;28;20068;-70
2023/05/20 04:10:09;;;;;;;0.80;0.17;;;;;;;11.52;57.79;100718.34;5065465;28;20508;-70
2023/05/20 04:12:37;;;;;;;0.10;0.10;;;;;;;11.56;57.50;100719.47;5061791;28;20041;-71
2023/05/20 04:15:07;;;;;;;0.10;0.10;;;;;;;11.53;57.53;100733.69;5048504;28;20048;-71
2023/05/20 04:17:42;;;;;;;0.32;0.10;;;;;;;11.50;57.96;100715.06;5050059;28;20051;-71
2023/05/20 04:20:10;;;;;;;0.10;0.10;;;;;;;11.48;58.49;100720.78;5065329;28;20051;-70
2023/05/20 04:22:38;;;;;;;0.10;0.10;;;;;;;11.49;58.26;100724.34;5063426;28;20127;-70
2023/05/20 04:25:05;;;;;;;0.10;0.10;;;;;;;11.47;58.34;100727.34;5063984;28;20579;-71
2023/05/20 04:27:36;;;;;;;0.20;0.20;;;;;;;11.49;58.24;100727.09;5066046;28;20066;-71
2023/05/20 04:30:06;;;;;;;0.10;0.10;;;;;;;11.53;58.12;100719.16;5067767;28;20110;-70
2023/05/20 04:32:37;;;;;;;0.10;0.10;;;;;;;11.57;58.23;100721.13;5054963;28;20515;-71
2023/05/20 04:35:08;;;;;;;0.10;0.10;;;;;;;11.65;57.92;100719.03;5069137;28;20538;-71
2023/05/20 04:37:36;;;;;;;0.10;0.10;;;;;;;11.80;57.83;100726.53;5035542;28;20052;-70
2023/05/20 04:40:05;;;;;;;0.10;0.10;;;;;;;11.91;57.28;100720.88;5068051;28;20150;-72
2023/05/20 04:42:32;;;;;;;0.10;0.10;;;;;;;11.96;57.08;100725.59;5067547;28;20578;-72
2023/05/20 04:45:00;;;;;;;0.20;0.20;;;;;;;12.08;57.08;100725.44;5062814;28;20052;-72
2023/05/20 04:47:37;;;;;;;0.20;0.20;;;;;;;12.23;56.87;100727.47;5048472;28;20048;-72
2023/05/20 04:50:05;;;;;;;0.32;0.30;;;;;;;12.32;56.38;100719.59;5060815;28;20076;-72
2023/05/20 04:52:32;;;;;;;0.10;0.10;;;;;;;12.44;55.85;100722.13;5103414;28;20052;-72
2023/05/20 04:55:00;;;;;;;0.20;0.20;;;;;;;12.47;55.84;100716.09;5076476;28;20039;-72
2023/05/20 04:57:27;;;;;;;0.20;0.20;;;;;;;12.54;55.79;100724.09;5084183;28;20048;-72
2023/05/20 04:59:57;;;;;;;0.10;0.10;;;;;;;12.64;55.78;100721.41;5065040;28;20102;-72
2023/05/20 05:02:24;;;;;;;0.20;0.20;;;;;;;12.71;55.57;100727.47;5049106;28;20131;-72
2023/05/20 05:04:51;;;;;;;0.20;0.20;;;;;;;12.88;55.08;100724.53;5069302;28;20047;-72
2023/05/20 05:07:17;;;;;;;;;;;;;;;12.98;54.59;100722.94;5051713;28;20751;-72
2023/05/20 05:09:43;;;;;;;0.10;0.10;;;;;;;13.02;54.28;100727.63;5086211;28;19924;-72
2023/05/20 05:12:10;;;;;;;0.20;0.20;;;;;;;13.13;54.32;100716.69;5067226;28;20937;-72
2023/05/20 05:14:36;;;;;;;0.20;0.20;;;;;;;13.22;53.99;100723.31;5069300;28;20043;-71
2023/05/20 05:17:02;;;;;;;0.20;0.20;;;;;;;13.21;53.91;100718.91;5084373;28;20044;-71
2023/05/20 05:19:29;;;;;;;0.20;0.20;;;;;;;13.19;53.92;100715.63;5049307;28;20489;-71
2023/05/20 05:21:56;;;;;;;0.20;0.20;;;;;;;13.19;54.36;100719.16;5085799;28;20050;-71
2023/05/20 05:24:23;;;;;;;0.20;0.20;;;;;;;13.39;53.98;100719.50;5069340;28;20555;-71
2023/05/20 05:26:53;;;;;;;0.20;0.20;;;;;;;13.52;53.24;100716.25;5046131;28;20090;-71
2023/05/20 05:29:19;;;;;;;0.20;0.20;;;;;;;13.61;53.47;100714.63;5066371;28;20096;-71
2023/05/20 05:31:45;;;;;;;0.20;0.20;;;;;;;13.62;53.18;100726.44;5073941;28;20437;-71
2023/05/20 05:34:11;;;;;;;0.20;0.20;;;;;;;13.59;52.78;100716.00;5067217;28;20063;-71
2023/05/20 05:36:39;;;;;;;0.30;0.30;;;;;;;13.65;52.80;100717.66;5063506;28;20047;-70
2023/05/20 05:39:06;;;;;;;;;;;;;;;13.74;52.63;100709.69;5065593;28;20302;-71
2023/05/20 05:41:35;;;;;;;0.22;0.22;;;;;;;13.83;52.16;100707.22;5065224;28;19931;-71
2023/05/20 05:44:01;;;;;;;0.20;0.20;;;;;;;13.85;52.31;100710.50;5065187;28;20526;-71
2023/05/20 05:46:28;;;;;;;0.20;0.20;;;;;;;13.88;52.26;100704.44;5068336;28;20526;-71
2023/05/20 05:48:55;;;;;;;0.20;0.20;;;;;;;13.96;52.13;100717.66;5044705;28;20101;-71
2023/05/20 05:51:21;;;;;;;0.20;0.20;;;;;;;13.99;51.91;100708.06;5048633;28;20059;-71
2023/05/20 05:53:48;;;;;;;;;;;;;;;14.00;51.78;100705.00;5066566;28;20093;-70
2023/05/20 05:56:15;;;;;;;0.30;0.30;;;;;;;13.98;51.65;100704.47;5085155;28;19924;-71
2023/05/20 05:58:42;;;;;;;0.20;0.20;;;;;;;14.02;51.79;100708.31;5078079;28;20518;-71
2023/05/20 06:01:08;;;;;;;0.20;0.20;;;;;;;14.13;51.39;100705.56;5085893;28;20043;-71
2023/05/20 06:03:34;;;;;;;0.20;0.20;;;;;;;14.20;51.39;100703.34;5066626;28;20044;-70
2023/05/20 06:06:01;;;;;;;0.20;0.20;;;;;;;14.34;50.97;100703.59;5064265;28;20043;-71
2023/05/20 06:08:27;;;;;;;0.20;0.20;;;;;;;14.48;50.70;100705.78;5065833;28;20048;-71
2023/05/20 06:10:54;;;;;;;0.20;0.20;;;;;;;14.46;50.22;100706.03;5083224;28;20044;-70
2023/05/20 06:13:22;;;;;;;0.20;0.20;;;;;;;14.41;50.37;100706.06;5065580;28;20293;-71
2023/05/20 06:15:48;;;;;;;0.20;0.20;;;;;;;14.42;50.72;100711.28;5083564;28;20057;-71
2023/05/20 06:18:16;;;;;;;0.20;0.20;;;;;;;14.59;50.27;100707.38;5065173;28;20093;-71
2023/05/20 06:20:42;;;;;;;0.20;0.20;;;;;;;14.69;50.44;100712.84;5064410;28;20139;-71
2023/05/20 06:23:08;;;;;;;0.20;0.20;;;;;;;14.85;49.73;100708.16;5066515;28;20048;-70
2023/05/20 06:25:43;;;;;;;0.20;0.20;;;;;;;14.86;49.56;100714.47;5034704;28;20046;-70
2023/05/20 06:28:11;;;;;;;0.30;0.30;;;;;;;14.85;49.59;100713.66;5065720;28;20556;-71
2023/05/20 06:30:39;;;;;;;0.20;0.20;;;;;;;14.97;49.06;100718.84;5067250;28;20365;-70
2023/05/20 06:33:06;;;;;;;0.30;0.30;;;;;;;15.12;48.48;100712.44;5084419;28;20044;-70
2023/05/20 06:35:35;;;;;;;0.30;0.30;;;;;;;15.11;48.24;100704.47;5064955;28;20067;-70
2023/05/20 06:38:02;;;;;;;0.30;0.30;;;;;;;15.19;47.96;100708.56;5063688;28;20603;-70
2023/05/20 06:40:28;;;;;;;0.30;0.30;;;;;;;15.32;47.75;100714.25;5065855;28;20461;-70
2023/05/20 06:42:54;;;;;;;0.30;0.30;;;;;;;15.52;47.09;100711.66;5082788;28;20071;-70
2023/05/20 06:45:43;;;;;;;0.30;0.30;;;;;;;15.73;46.48;100707.63;5084520;28;20143;-70
2023/05/20 06:48:21;;;;;;;0.30;0.30;;;;;;;15.89;46.33;100704.78;5050098;28;20079;-70
2023/05/20 06:50:47;;;;;;;0.20;0.20;;;;;;;16.04;46.04;100709.34;5049848;28;20404;-71
2023/05/20 06:53:14;;;;;;;0.30;0.30;;;;;;;15.95;45.88;100700.06;5073733;28;20048;-70
2023/05/20 06:55:41;;;;;;;0.47;0.30;;;;;;;15.84;45.53;100711.16;5044848;28;20056;-70
2023/05/20 06:58:07;;;;;;;0.20;0.20;;;;;;;15.74;45.29;100720.31;5062989;28;20044;-70
2023/05/20 07:00:35;;;;;;;0.55;0.30;;;;;;;15.57;46.04;100711.63;5045055;28;20048;-70
2023/05/20 07:03:03;;;;;;;0.30;0.30;;;;;;;15.54;46.16;100709.44;5032052;28;20040;-71
2023/05/20 07:05:30;;;;;;;0.30;0.30;;;;;;;15.73;45.86;100715.91;5063442;28;20053;-71
2023/05/20 07:07:56;;;;;;;0.35;0.25;;;;;;;15.93;45.52;100711.38;5047146;28;20048;-71
2023/05/20 07:10:24;;;;;;;0.30;0.30;;;;;;;16.26;45.16;100708.03;5045995;28;20044;-71
2023/05/20 07:12:50;;;;;;;0.30;0.30;;;;;;;16.45;44.21;100697.91;5038640;28;20076;-71
2023/05/20 07:15:17;;;;;;;0.30;0.30;;;;;;;16.43;44.20;100707.59;5078417;28;20036;-71
2023/05/20 07:17:43;;;;;;;0.43;0.40;;;;;;;16.27;44.73;100705.00;5081743;28;20137;-70
2023/05/20 07:20:11;;;;;;;0.30;0.30;;;;;;;16.15;44.70;100702.63;5061671;28;20080;-70
2023/05/20 07:22:38;;;;;;;0.30;0.30;;;;;;;16.31;44.01;100696.94;5042729;28;20140;-71
2023/05/20 07:25:18;;;;;;;0.40;0.40;;;;;;;16.73;42.78;100702.84;5078301;28;20048;-70
2023/05/20 07:27:45;;;;;;;0.30;0.30;;;;;;;17.05;42.19;100703.31;5064117;28;20052;-71
2023/05/20 07:30:11;;;;;;;0.30;0.30;;;;;;;17.31;41.58;100703.78;5065809;28;20056;-70
2023/05/20 07:32:53;;;;;;;0.30;0.30;;;;;;;17.17;41.93;100703.69;5082610;28;20133;-71
2023/05/20 07:35:58;;;;;;;0.30;0.30;;;;;;;16.95;41.67;100705.06;5066211;28;20475;-71
2023/05/20 07:38:37;;;;;;;0.40;0.40;;;;;;;16.74;42.50;100687.94;5081767;28;20040;-70
2023/05/20 07:41:07;;;;;;;0.25;0.25;;;;;;;16.35;42.47;100686.16;5067626;28;20155;-71
2023/05/20 07:43:34;;;;;;;0.20;0.20;;;;;;;15.97;42.50;100700.59;5086088;28;20055;-71
2023/05/20 07:46:02;;;;;;;0.40;0.40;;;;;;;15.84;42.84;100691.84;5078203;28;20074;-72
2023/05/20 07:48:28;;;;;;;0.30;0.30;;;;;;;15.90;42.68;100698.16;5082621;28;20056;-70
2023/05/20 07:50:57;;;;;;;0.30;0.30;;;;;;;15.97;42.25;100695.06;5049407;28;20044;-70
2023/05/20 07:53:26;;;;;;;0.30;0.30;;;;;;;16.34;42.15;100695.53;5045169;28;20147;-70
2023/05/20 07:55:52;;;;;;;0.30;0.30;;;;;;;16.41;41.88;100691.31;4709489;28;10000283;-71
2023/05/20 07:58:18;;;;;;;0.68;0.40;;;;;;;16.94;40.45;100686.84;5069125;28;20041;-70
2023/05/20 08:00:45;;;;;;;0.30;0.30;;;;;;;17.43;39.20;100690.31;5052763;28;20040;-70
2023/05/20 08:03:11;;;;;;;0.30;0.30;;;;;;;17.69;37.74;100681.63;5051007;28;20051;-71
2023/05/20 08:06:00;;;;;;;0.30;0.30;;;;;;;17.52;37.33;100684.13;5055765;28;20055;-70
2023/05/20 08:08:32;;;;;;;0.30;0.30;;;;;;;17.24;38.66;100686.75;5051721;28;20048;-71
2023/05/20 08:11:06;;;;;;;0.40;0.40;;;;;;;17.49;38.54;100687.50;5058169;28;20443;-70
2023/05/20 08:13:33;;;;;;;0.40;0.40;;;;;;;17.99;37.44;100682.25;5031558;28;20526;-70
2023/05/20 08:16:02;;;;;;;0.40;0.40;;;;;;;18.87;36.07;100670.63;5042425;28;20056;-71
2023/05/20 08:18:29;;;;;;;0.30;0.30;;;;;;;18.72;35.94;100672.59;5072737;28;20125;-70
2023/05/20 08:20:55;;;;;;;0.40;0.40;;;;;;;18.07;36.81;100675.22;5065735;28;20055;-71
2023/05/20 08:23:21;;;;;;;0.40;0.40;;;;;;;17.74;37.13;100682.66;5057574;28;20388;-71
2023/05/20 08:25:50;;;;;;;0.40;0.40;;;;;;;17.91;37.21;100668.28;5057932;28;20053;-71
2023/05/20 08:28:18;;;;;;;0.30;0.30;;;;;;;17.95;37.24;100670.16;5046999;28;20043;-71
2023/05/20 08:30:46;;;;;;;0.30;0.30;;;;;;;17.62;37.36;100683.94;5074381;28;20057;-71
2023/05/20 08:33:12;;;;;;;0.30;0.30;;;;;;;17.29;37.46;100689.44;5055494;28;20052;-71
2023/05/20 08:35:39;;;;;;;0.30;0.30;;;;;;;17.15;37.84;100679.13;5045982;28;20040;-70
2023/05/20 08:38:06;;;;;;;0.30;0.30;;;;;;;17.02;38.06;100677.13;5069244;28;20047;-70
2023/05/20 08:40:35;;;;;;;0.30;0.30;;;;;;;17.00;37.95;100682.94;5071300;28;20048;-70
2023/05/20 08:43:03;;;;;;;0.30;0.30;;;;;;;16.83;38.49;100677.06;5072478;28;20044;-71
2023/05/20 08:45:32;;;;;;;0.30;0.30;;;;;;;16.80;38.57;100672.13;5053942;28;20116;-71
2023/05/20 08:48:04;;;;;;;0.40;0.40;;;;;;;16.89;38.46;100677.81;5058441;28;20271;-70
2023/05/20 08:50:31;;;;;;;0.52;0.52;;;;;;;17.26;37.72;100679.81;5074050;28;20510;-71
2023/05/20 08:52:58;;;;;;;0.85;0.45;;;;;;;18.08;37.17;100676.03;5072644;28;20051;-70
2023/05/20 08:55:32;;;;;;;0.40;0.40;;;;;;;18.30;36.40;100667.03;5071216;28;20520;-70
2023/05/20 08:57:59;;;;;;;0.50;0.32;;;;;;;17.70;36.92;100655.63;5072740;28;20257;-70
2023/05/20 09:00:28;;;;;;;0.30;0.30;;;;;;;17.47;37.30;100682.25;5040402;28;20531;-70
2023/05/20 09:02:55;;;;;;;0.30;0.30;;;;;;;17.34;38.01;100681.09;5043355;28;20032;-71
2023/05/20 09:05:22;;;;;;;0.40;0.40;;;;;;;17.31;38.01;100678.91;5076595;28;20044;-71
2023/05/20 09:07:48;;;;;;;0.45;0.45;;;;;;;17.35;37.64;100685.50;5064223;28;20554;-71
2023/05/20 09:10:16;;;;;;;0.40;0.40;;;;;;;17.46;37.72;100677.84;5046539;28;20049;-70
2023/05/20 09:12:42;;;;;;;0.40;0.40;;;;;;;17.61;37.00;100693.38;5071280;28;20044;-71
2023/05/20 09:15:09;;;;;;;0.50;0.50;;;;;;;17.70;36.54;100682.44;5033568;28;20051;-72
2023/05/20 09:17:37;;;;;;;0.40;0.40;;;;;;;17.75;36.37;100689.84;5054258;28;20055;-71
2023/05/20 09:20:07;;;;;;;0.80;0.32;;;;;;;17.92;36.88;100692.88;5078035;28;20048;-71
2023/05/20 09:22:33;;;;;;;0.30;0.30;;;;;;;18.05;36.69;100683.00;5059167;28;20040;-72
2023/05/20 09:25:00;;;;;;;0.40;0.40;;;;;;;17.91;37.20;100691.22;5080740;28;20052;-71
2023/05/20 09:27:26;;;;;;;0.40;0.40;;;;;;;17.85;37.72;100678.63;5081057;28;20040;-71
2023/05/20 09:29:52;;;;;;;0.40;0.40;;;;;;;17.78;37.71;100689.22;5067212;28;20078;-71
2023/05/20 09:32:23;;;;;;;0.40;0.40;;;;;;;17.90;37.73;100694.31;5069291;28;20533;-71
2023/05/20 09:34:51;;;;;;;0.38;0.38;;;;;;;17.81;37.32;100700.53;5066917;28;20048;-72
2023/05/20 09:37:20;;;;;;;0.40;0.40;;;;;;;17.67;37.62;100697.72;5066914;28;20052;-71
2023/05/20 09:39:55;;;;;;;0.30;0.30;;;;;;;17.76;37.17;100705.31;5064939;28;20045;-71
2023/05/20 09:42:25;;;;;;;0.30;0.30;;;;;;;17.70;37.15;100699.03;5048825;28;20584;-71
2023/05/20 09:44:53;;;;;;;0.30;0.30;;;;;;;17.56;37.85;100704.53;5070315;28;20462;-71
2023/05/20 09:47:22;;;;;;;0.40;0.40;;;;;;;17.50;38.24;100697.44;5084796;28;20044;-71
2023/05/20 09:49:51;;;;;;;0.30;0.30;;;;;;;17.52;37.86;100704.28;5050550;28;20048;-71
2023/05/20 09:52:18;;;;;;;0.35;0.35;;;;;;;17.54;37.88;100706.78;5051802;28;20113;-71
2023/05/20 09:54:46;;;;;;;0.30;0.30;;;;;;;17.52;37.91;100689.66;5067540;28;20124;-71
2023/05/20 09:57:12;;;;;;;0.30;0.30;;;;;;;17.49;38.12;100690.28;5084364;28;20102;-71
2023/05/20 09:59:40;;;;;;;0.30;0.30;;;;;;;17.40;38.03;100698.38;5086098;28;20102;-70
2023/05/20 10:02:06;;;;;;;0.30;0.30;;;;;;;17.24;38.59;100708.84;5086102;28;20046;-71
2023/05/20 10:04:35;;;;;;;0.40;0.30;;;;;;;17.05;38.46;100697.78;5085349;28;20040;-70
2023/05/20 10:07:27;;;;;;;0.30;0.30;;;;;;;16.63;39.19;100697.44;5087105;28;20522;-71
2023/05/20 10:10:02;;;;;;;0.20;0.20;;;;;;;16.36;39.97;100707.13;5066732;28;20094;-71
2023/05/20 10:12:35;;;;;;;0.20;0.20;;;;;;;16.04;40.89;100705.75;5066751;28;20131;-71
2023/05/20 10:15:15;;;;;;;0.20;0.20;;;;;;;15.82;41.29;100715.31;5051595;28;20128;-71
2023/05/20 10:17:49;;;;;;;0.20;0.20;;;;;;;15.73;41.84;100721.41;5082544;28;20063;-72
2023/05/20 10:20:16;;;;;;;0.30;0.30;;;;;;;15.59;42.16;100721.25;5084686;28;20519;-71
2023/05/20 10:22:55;;;;;;;0.20;0.20;;;;;;;15.43;42.59;100726.03;5083931;28;20063;-71
2023/05/20 10:25:25;;;;;;;0.20;0.20;;;;;;;15.38;42.74;100719.75;5066311;28;20044;-71
2023/05/20 10:28:02;;;;;;;0.20;0.20;;;;;;;15.32;42.93;100722.50;5068966;28;20048;-71
2023/05/20 10:30:29;;;;;;;0.30;0.30;;;;;;;15.28;42.88;100717.84;5066272;28;20566;-72
2023/05/20 10:33:01;;;;;;;0.20;0.20;;;;;;;15.28;42.17;100721.44;5076712;28;20078;-71
2023/05/20 10:35:28;;;;;;;0.20;0.20;;;;;;;15.31;41.73;100720.06;5081910;28;20043;-72
2023/05/20 10:38:08;;;;;;;0.38;0.30;;;;;;;15.45;41.62;100718.31;5082146;28;20101;-71
2023/05/20 10:40:34;;;;;;;0.20;0.20;;;;;;;15.57;40.56;100712.44;5071512;28;20582;-71
2023/05/20 10:43:09;;;;;;;0.20;0.20;;;;;;;15.62;40.24;100708.84;5062082;28;20090;-71
2023/05/20 10:45:47;;;;;;;0.30;0.30;;;;;;;15.70;40.28;100708.22;5062477;28;20790;-71
2023/05/20 10:48:20;;;;;;;0.30;0.30;;;;;;;15.82;40.36;100726.34;5066113;28;20048;-72
2023/05/20 10:50:46;;;;;;;0.20;0.20;;;;;;;15.90;40.52;100711.94;5061807;28;20049;-72
2023/05/20 10:53:15;;;;;;;0.25;0.25;;;;;;;16.04;40.07;100708.53;5043783;28;20563;-71
2023/05/20 10:55:48;;;;;;;0.28;0.28;;;;;;;16.14;39.87;100714.75;5058052;28;20047;-71
2023/05/20 10:58:14;;;;;;;0.28;0.28;;;;;;;16.24;39.90;100710.28;5077788;28;20400;-71
2023/05/20 11:00:41;;;;;;;0.43;0.30;;;;;;;16.43;39.89;100718.66;5067004;28;20044;-72
2023/05/20 11:03:11;;;;;;;0.30;0.30;;;;;;;16.65;39.32;100707.09;5080200;28;20051;-72
2023/05/20 11:05:39;;;;;;;0.30;0.30;;;;;;;16.66;38.95;100685.81;4729733;28;10000182;-71
2023/05/20 11:08:05;;;;;;;;;;;;;;;16.84;38.97;100704.34;5079633;28;20584;-72
2023/05/20 11:10:35;;;;;;;0.30;0.30;;;;;;;17.01;38.53;100705.81;5071109;28;20311;-70
2023/05/20 11:13:07;;;;;;;0.30;0.30;;;;;;;17.11;38.29;100713.19;5043899;28;20098;-71
2023/05/20 11:15:37;;;;;;;0.30;0.30;;;;;;;17.22;38.10;100716.63;5044177;28;20051;-71
2023/05/20 11:18:03;;;;;;;0.30;0.30;;;;;;;17.41;37.55;100706.41;5074926;28;20139;-71
2023/05/20 11:20:33;;;;;;;0.40;0.40;;;;;;;17.44;37.57;100708.56;5045425;28;20139;-70
2023/05/20 11:23:02;;;;;;;0.32;0.32;;;;;;;17.49;37.63;100707.66;5064761;28;20830;-71
2023/05/20 11:25:28;;;;;;;0.50;0.50;;;;;;;17.84;37.08;100710.16;5044807;28;20053;-71
2023/05/20 11:27:56;;;;;;;0.40;0.40;;;;;;;18.27;36.14;100710.00;5064143;28;20060;-71
2023/05/20 11:30:23;;;;;;;0.40;0.40;;;;;;;18.28;36.00;100705.28;5059368;28;20329;-71
2023/05/20 11:32:58;;;;;;;0.40;0.40;;;;;;;18.33;35.17;100705.19;5056028;28;20604;-72